createdAt,value
2023-01-24T00:02:39.599Z,6.47
2023-01-24T00:07:41.433Z,6.53
2023-01-24T00:12:48.303Z,6.50
2023-01-24T00:17:50.065Z,6.56
2023-01-24T00:22:52.050Z,6.64
2023-01-24T00:27:53.979Z,6.57
2023-01-24T00:32:57.619Z,6.63
2023-01-24T00:37:59.348Z,6.63
2023-01-24T00:43:01.097Z,6.53
2023-01-24T00:48:04.442Z,6.55
2023-01-24T00:53:06.648Z,6.65
2023-01-24T00:58:08.370Z,6.66
2023-01-24T01:03:16.161Z,6.73
2023-01-24T01:08:17.909Z,6.91
2023-01-24T01:13:19.776Z,6.95
2023-01-24T01:18:21.708Z,6.90
2023-01-24T01:23:23.522Z,7.03
2023-01-24T01:28:25.262Z,7.09
2023-01-24T01:33:29.583Z,7.00
2023-01-24T01:38:31.572Z,6.98
2023-01-24T01:43:33.377Z,6.88
2023-01-24T01:48:36.943Z,6.84
2023-01-24T01:54:02.036Z,6.98
2023-01-24T01:59:10.663Z,6.87
2023-01-24T02:04:19.297Z,6.79
2023-01-24T02:09:28.025Z,6.78
2023-01-24T02:14:50.201Z,6.78
2023-01-24T02:20:04.624Z,6.72
2023-01-24T02:25:21.114Z,6.68
2023-01-24T02:30:23.058Z,6.59
2023-01-24T02:35:31.036Z,6.56
2023-01-24T02:40:34.197Z,6.49
2023-01-24T02:45:36.594Z,6.44
2023-01-24T02:50:57.111Z,6.41
2023-01-24T02:56:22.174Z,6.44
2023-01-24T03:01:24.371Z,6.49
2023-01-24T03:06:28.991Z,6.46
2023-01-24T03:11:30.784Z,6.52
2023-01-24T03:16:51.678Z,6.64
2023-01-24T03:22:12.389Z,6.65
2023-01-24T03:27:43.268Z,6.61
2023-01-24T03:33:05.947Z,6.75
2023-01-24T03:38:27.377Z,6.89
2023-01-24T03:43:29.773Z,6.89
2023-01-24T03:48:37.249Z,6.87
2023-01-24T03:53:39.601Z,6.81
2023-01-24T03:58:41.981Z,6.70
2023-01-24T04:03:45.264Z,6.60
2023-01-24T04:08:47.585Z,6.55
2023-01-24T04:13:49.787Z,6.65
2023-01-24T04:18:51.536Z,6.68
2023-01-24T04:23:53.824Z,6.79
2023-01-24T04:28:56.181Z,6.69
2023-01-24T04:33:58.447Z,6.59
2023-01-24T04:39:02.199Z,6.63
2023-01-24T04:44:24.184Z,6.62
2023-01-24T04:49:27.503Z,6.71
2023-01-24T04:54:29.701Z,6.67
2023-01-24T04:59:31.727Z,6.57
2023-01-24T05:04:33.604Z,6.62
2023-01-24T05:09:35.712Z,6.67
2023-01-24T05:14:41.476Z,6.56
2023-01-24T05:19:44.735Z,6.55
2023-01-24T05:24:48.895Z,6.60
2023-01-24T05:29:51.416Z,6.60
2023-01-24T05:34:53.210Z,6.64
2023-01-24T05:39:55.209Z,6.72
2023-01-24T05:44:57.131Z,6.67
2023-01-24T05:49:59.848Z,6.84
2023-01-24T05:55:01.656Z,6.82
2023-01-24T06:00:06.392Z,6.78
2023-01-24T06:05:16.372Z,6.90
2023-01-24T06:10:18.216Z,6.99
2023-01-24T06:15:27.827Z,7.04
2023-01-24T06:20:31.169Z,7.07
2023-01-24T06:25:34.816Z,6.96
2023-01-24T06:30:40.927Z,6.98
2023-01-24T06:35:51.670Z,6.95
2023-01-24T06:41:03.603Z,6.84
2023-01-24T06:46:05.316Z,6.80
2023-01-24T06:51:07.083Z,6.90
2023-01-24T06:56:09.964Z,6.79
2023-01-24T07:01:11.770Z,6.77
2023-01-24T07:06:14.253Z,6.68
2023-01-24T07:11:15.983Z,6.80
2023-01-24T07:16:18.081Z,6.83
2023-01-24T07:21:20.083Z,6.88
2023-01-24T07:26:22.133Z,6.88
2023-01-24T07:31:24.069Z,6.87
2023-01-24T07:36:25.970Z,6.89
2023-01-24T07:41:27.701Z,6.95
2023-01-24T07:46:29.490Z,7.01
2023-01-24T07:51:31.777Z,7.04
2023-01-24T07:56:33.553Z,7.08
2023-01-24T08:01:35.245Z,7.05
2023-01-24T08:06:37.073Z,7.07
2023-01-24T08:11:38.918Z,7.08
2023-01-24T08:16:40.796Z,7.09
2023-01-24T08:21:42.894Z,7.13
2023-01-24T08:26:47.341Z,7.08
2023-01-24T08:31:49.599Z,7.17
2023-01-24T08:36:51.734Z,7.18
2023-01-24T08:41:53.457Z,7.09
2023-01-24T08:46:55.378Z,7.03
2023-01-24T08:52:00.181Z,6.92
2023-01-24T08:57:04.263Z,6.95
2023-01-24T09:02:06.784Z,6.92
2023-01-24T09:07:09.324Z,6.92
2023-01-24T09:12:11.096Z,6.64
2023-01-24T09:17:13.094Z,6.45
2023-01-24T09:22:14.930Z,6.45
2023-01-24T09:27:16.669Z,6.44
2023-01-24T09:32:18.580Z,6.40
2023-01-24T09:37:21.286Z,6.61
2023-01-24T09:42:38.777Z,6.65
2023-01-24T09:47:54.503Z,6.67
2023-01-24T09:52:59.725Z,6.70
2023-01-24T09:58:07.421Z,6.74
2023-01-24T10:03:21.020Z,6.70
2023-01-24T10:08:38.638Z,6.61
2023-01-24T10:13:52.436Z,6.53
2023-01-24T10:19:16.337Z,6.34
2023-01-24T10:24:24.342Z,6.40
2023-01-24T10:29:31.040Z,6.36
2023-01-24T10:34:53.997Z,6.49
2023-01-24T10:39:55.880Z,6.70
2023-01-24T10:45:10.062Z,6.81
2023-01-24T10:50:18.250Z,6.70
2023-01-24T10:55:37.343Z,6.62
2023-01-24T11:00:44.028Z,6.49
2023-01-24T11:05:51.186Z,6.51
2023-01-24T11:10:59.759Z,6.48
2023-01-24T11:16:18.663Z,6.40
2023-01-24T11:21:21.115Z,6.37
2023-01-24T11:26:31.718Z,6.45
2023-01-24T11:31:38.898Z,6.48
2023-01-24T11:37:02.912Z,6.53
2023-01-24T11:42:32.049Z,6.69
2023-01-24T11:47:40.614Z,6.89
2023-01-24T11:52:54.075Z,7.02
2023-01-24T11:58:01.618Z,7.23
2023-01-24T12:03:28.799Z,7.27
2023-01-24T12:08:42.164Z,7.26
2023-01-24T12:13:53.254Z,7.35
2023-01-24T12:19:24.985Z,7.49
2023-01-24T12:24:41.161Z,7.68
2023-01-24T12:30:02.854Z,7.51
2023-01-24T12:35:28.100Z,7.46
2023-01-24T12:40:36.035Z,7.44
2023-01-24T12:46:00.460Z,7.36
2023-01-24T12:51:27.446Z,7.34
2023-01-24T12:56:43.313Z,7.42
2023-01-24T13:02:25.794Z,7.56
2023-01-24T13:07:39.907Z,7.77
2023-01-24T13:12:44.917Z,8.03
2023-01-24T13:18:16.114Z,7.91
2023-01-24T13:23:32.329Z,7.75
2023-01-24T13:28:50.499Z,7.65
2023-01-24T13:33:59.604Z,7.55
2023-01-24T13:39:02.870Z,7.56
2023-01-24T13:44:07.458Z,7.61
2023-01-24T13:49:19.186Z,7.64
2023-01-24T13:54:44.274Z,7.75
2023-01-24T14:00:15.428Z,7.52
2023-01-24T14:05:29.616Z,7.42
2023-01-24T14:10:45.940Z,7.33
2023-01-24T14:15:47.701Z,7.49
2023-01-24T14:20:49.490Z,7.38
2023-01-24T14:25:54.322Z,7.38
2023-01-24T14:30:59.885Z,7.42
2023-01-24T14:36:24.699Z,7.49
2023-01-24T14:41:26.574Z,7.27
2023-01-24T14:46:28.301Z,7.00
2023-01-24T14:51:30.386Z,6.84
2023-01-24T14:56:40.650Z,6.63
2023-01-24T15:01:42.827Z,6.56
2023-01-24T15:06:44.725Z,6.59
2023-01-24T15:11:47.445Z,6.58
2023-01-24T15:16:54.783Z,6.65
2023-01-24T15:21:57.451Z,6.74
2023-01-24T15:27:01.312Z,6.82
2023-01-24T15:32:04.282Z,6.80
2023-01-24T15:37:13.038Z,6.71
2023-01-24T15:42:35.648Z,6.90
2023-01-24T15:47:46.171Z,6.80
2023-01-24T15:53:10.575Z,6.93
2023-01-24T15:58:13.464Z,7.10
2023-01-24T16:03:16.407Z,7.17
2023-01-24T16:08:19.474Z,7.25
2023-01-24T16:13:34.125Z,7.48
2023-01-24T16:18:35.847Z,7.56
2023-01-24T16:23:37.914Z,7.32
2023-01-24T16:28:39.640Z,7.32
2023-01-24T16:33:41.343Z,7.05
2023-01-24T16:38:45.005Z,7.06
2023-01-24T16:43:46.702Z,7.01
2023-01-24T16:48:48.396Z,7.00
2023-01-24T16:53:54.645Z,7.12
2023-01-24T16:58:56.406Z,7.14
2023-01-24T17:03:58.111Z,7.20
2023-01-24T17:08:59.892Z,7.09
2023-01-24T17:14:01.581Z,6.96
2023-01-24T17:19:03.440Z,6.89
2023-01-24T17:24:05.299Z,6.67
2023-01-24T17:29:07.034Z,6.49
2023-01-24T17:34:08.732Z,6.62
2023-01-24T17:39:10.797Z,6.64
2023-01-24T17:44:13.373Z,6.59
2023-01-24T17:49:15.235Z,6.87
2023-01-24T17:54:17.389Z,7.04
2023-01-24T17:59:19.403Z,7.16
2023-01-24T18:04:21.091Z,7.26
2023-01-24T18:09:22.805Z,7.44
2023-01-24T18:14:24.613Z,7.34
2023-01-24T18:19:26.629Z,7.36
2023-01-24T18:24:28.752Z,7.29
2023-01-24T18:29:30.464Z,7.22
2023-01-24T18:34:32.144Z,7.18
2023-01-24T18:39:34.226Z,7.22
2023-01-24T18:44:36.608Z,7.46
2023-01-24T18:49:38.402Z,7.48
2023-01-24T18:54:41.616Z,7.74
2023-01-24T18:59:43.487Z,7.74
2023-01-24T19:04:45.169Z,7.85
2023-01-24T19:09:46.871Z,7.88
2023-01-24T19:14:49.327Z,7.77
2023-01-24T19:19:53.342Z,7.61
2023-01-24T19:24:55.056Z,7.56
2023-01-24T19:29:56.817Z,7.45
2023-01-24T19:34:58.532Z,7.41
2023-01-24T19:40:00.275Z,7.42
2023-01-24T19:45:02.063Z,7.36
2023-01-24T19:50:04.041Z,7.11
2023-01-24T19:55:06.415Z,7.10
2023-01-24T20:00:10.329Z,7.18
2023-01-24T20:05:12.307Z,7.14
2023-01-24T20:10:14.211Z,7.22
2023-01-24T20:15:16.220Z,7.12
2023-01-24T20:20:20.794Z,7.11
2023-01-24T20:25:24.234Z,7.16
2023-01-24T20:30:27.619Z,7.13
2023-01-24T20:35:29.363Z,7.20
2023-01-24T20:40:31.088Z,7.29
2023-01-24T20:45:36.259Z,7.26
2023-01-24T20:50:37.960Z,7.32
2023-01-24T20:55:39.562Z,7.28
2023-01-24T21:00:41.277Z,7.22
2023-01-24T21:05:43.059Z,7.40
2023-01-24T21:10:48.923Z,7.53
2023-01-24T21:15:50.694Z,7.52
2023-01-24T21:20:57.187Z,7.48
2023-01-24T21:26:06.891Z,7.55
2023-01-24T21:31:13.062Z,7.63
2023-01-24T21:36:18.069Z,7.81
2023-01-24T21:41:42.723Z,7.66
2023-01-24T21:46:44.528Z,7.44
2023-01-24T21:51:54.889Z,7.38
2023-01-24T21:57:30.744Z,7.41
2023-01-24T22:02:35.383Z,7.34
2023-01-24T22:07:37.166Z,7.35
2023-01-24T22:12:44.508Z,7.34
2023-01-24T22:17:46.584Z,7.38
2023-01-24T22:23:19.332Z,7.38
2023-01-24T22:28:21.837Z,7.37
2023-01-24T22:33:24.469Z,7.28
2023-01-24T22:38:27.475Z,7.10
2023-01-24T22:43:29.189Z,6.95
2023-01-24T22:48:30.921Z,7.04
2023-01-24T22:53:32.651Z,7.09
2023-01-24T22:58:34.299Z,7.07
2023-01-24T23:03:35.919Z,6.86
2023-01-24T23:08:38.452Z,6.85
2023-01-24T23:13:59.733Z,6.95
2023-01-24T23:19:24.933Z,7.09
2023-01-24T23:24:26.728Z,7.20
2023-01-24T23:29:37.401Z,7.00
2023-01-24T23:34:40.552Z,6.93
2023-01-24T23:39:42.381Z,6.87
2023-01-24T23:44:44.924Z,6.92
2023-01-24T23:49:47.515Z,6.98
2023-01-24T23:54:49.200Z,7.00
2023-01-24T23:59:50.884Z,7.20
